Latest Weather Observations for Bankstown

IDN60801

Issued at 2:12 pm EST Thursday 18 July 2024 (issued every 10 minutes, with the page automatically refreshed every 10 minutes)

About weather observations | Map of weather stations | Latest weather observations for NSW | Other Formats
Station Details ID: 066137 Name: BANKSTOWN AIRPORT AWS Lat: -33.92 Lon: 150.98 Height: 7.2 m
Data from the previous 72 hours. | See also: Recent months at Bankstown
Date/Time
EST
Temp
°C
App
Temp
°C
Dew
Point
°C
Rel
Hum
%
Delta-T
°C
Wind Press
QNH
hPa
Press
MSL
hPa
Rain since
9am
mm
Dir  Spd
km/h
Gust
km/h
Spd
kts
Gust
kts
18/02:00pm 17.6 13.0 3.9 40 6.4 WSW 17 26 9 14 1010.8 1010.8 0.0
18/01:30pm 17.7 12.7 3.6 39 6.6 WSW 19 30 10 16 1011.0 1011.0 0.0
18/01:00pm 17.6 12.8 4.9 43 6.1 WSW 19 30 10 16 1011.0 1011.0 0.0
18/12:30pm 16.9 12.0 3.9 42 6.1 WSW 19 32 10 17 1011.2 1011.2 0.0
18/12:00pm 17.3 14.0 6.2 48 5.4 W 13 20 7 11 1011.8 1011.8 0.0
18/11:30am 16.3 13.0 6.4 52 4.8 W 13 24 7 13 1012.5 1012.5 0.0
18/11:00am 15.1 11.3 5.6 53 4.5 WSW 15 22 8 12 1012.9 1012.9 0.0
18/10:30am 15.0 12.1 6.3 56 4.2 W 11 17 6 9 1013.0 1013.0 0.0
18/10:00am 14.0 11.1 6.6 61 3.6 WNW 11 17 6 9 1013.3 1013.3 0.0
18/09:30am 13.2 12.3 7.6 69 2.7 NNW 2 7 1 4 1013.4 1013.4 0.0
18/09:00am 11.6 11.0 7.3 75 2.1 CALM 0 0 0 0 1013.4 1013.4 0.6
18/08:30am 9.8 9.0 8.1 89 0.8 W 2 7 1 4 1013.3 1013.3 0.6
18/08:00am 7.9 7.3 7.6 98 0.1 CALM 0 0 0 0 1013.2 1013.2 0.6
18/07:30am 6.3 5.4 5.9 97 0.2 CALM 0 0 0 0 1013.1 1013.1 0.6
18/07:00am 6.0 5.0 5.6 97 0.2 CALM 0 0 0 0 1012.8 1012.8 0.6
18/06:38am 6.2 5.2 5.8 97 0.2 CALM 0 0 0 0 1012.7 1012.7 0.6
18/06:30am 6.1 5.1 5.7 97 0.2 CALM 0 0 0 0 1012.6 1012.6 0.6
18/06:17am 6.2 5.2 5.6 96 0.3 CALM 0 0 0 0 1012.5 1012.5 0.6
18/06:00am 5.8 4.7 5.2 96 0.3 CALM 0 0 0 0 1012.4 1012.4 0.6
18/05:30am 6.9 6.1 6.3 96 0.3 CALM 0 0 0 0 1012.2 1012.2 0.6
18/05:00am 6.5 5.5 5.8 95 0.3 CALM 0 0 0 0 1012.0 1012.0 0.6
18/04:30am 7.0 6.1 6.1 94 0.4 CALM 0 0 0 0 1011.9 1011.9 0.6
18/04:00am 7.8 7.1 6.9 94 0.4 CALM 0 0 0 0 1011.7 1011.7 0.6
18/03:30am 8.5 7.8 7.1 91 0.7 CALM 0 0 0 0 1011.6 1011.6 0.6
18/03:00am 8.8 7.0 7.1 89 0.8 NW 6 9 3 5 1011.4 1011.4 0.6
18/02:30am 9.6 9.0 7.4 86 1.0 CALM 0 0 0 0 1011.3 1011.3 0.6
18/02:00am 9.8 9.2 7.6 86 1.1 CALM 0 0 0 0 1011.4 1011.4 0.6
18/01:30am 10.3 9.5 8.2 87 1.0 WSW 2 7 1 4 1011.2 1011.2 0.6
18/01:00am 10.3 9.9 8.1 86 1.1 CALM 0 0 0 0 1011.2 1011.2 0.6
18/12:30am 11.4 10.9 7.9 79 1.7 CALM 0 0 0 0 1011.2 1011.2 0.6
18/12:00am 12.0 10.4 7.9 76 2.0 SW 6 7 3 4 1011.1 1011.1 0.6
 
Date/Time
EST
Temp
°C
App
Temp
°C
Dew
Point
°C
Rel
Hum
%
Delta-T
°C
Wind Press
QNH
hPa
Press
MSL
hPa
Rain since
9am
mm
Dir  Spd
km/h
Gust
km/h
Spd
kts
Gust
kts
17/11:30pm 12.4 12.0 8.3 76 2.0 CALM 0 0 0 0 1011.2 1011.2 0.6
17/11:00pm 12.5 11.4 8.4 76 2.0 WSW 4 9 2 5 1011.3 1011.3 0.6
17/10:30pm 12.5 10.8 8.4 76 2.0 SW 7 11 4 6 1011.2 1011.2 0.6
17/10:00pm 12.5 10.9 8.8 78 1.9 WSW 7 9 4 5 1011.0 1011.0 0.6
17/09:30pm 12.4 12.3 9.6 83 1.4 CALM 0 0 0 0 1010.7 1010.7 0.6
17/09:00pm 12.6 11.4 9.6 82 1.5 SW 6 11 3 6 1010.5 1010.5 0.6
17/08:30pm 12.6 11.5 10.0 84 1.3 SSW 6 7 3 4 1010.2 1010.2 0.6
17/08:00pm 12.9 13.0 10.1 83 1.4 CALM 0 0 0 0 1009.7 1009.7 0.6
17/07:30pm 12.9 12.9 9.9 82 1.5 CALM 0 0 0 0 1009.4 1009.4 0.6
17/07:00pm 13.0 12.0 10.2 83 1.4 W 6 9 3 5 1008.9 1008.9 0.6
17/06:30pm 13.1 11.5 10.1 82 1.5 SW 9 13 5 7 1008.4 1008.4 0.4
17/06:00pm 13.6 11.6 10.0 79 1.9 SSW 11 15 6 8 1007.9 1007.9 0.4
17/05:30pm 15.5 13.5 8.5 63 3.5 S 9 17 5 9 1007.0 1007.0 0.0
17/05:00pm 16.5 14.3 6.1 50 5.1 WSW 7 11 4 6 1006.3 1006.3 0.0
17/04:30pm 17.3 14.2 5.6 46 5.7 WSW 11 15 6 8 1006.0 1006.0 0.0
17/04:00pm 17.6 14.1 5.5 45 5.9 WSW 13 19 7 10 1005.6 1005.6 0.0
17/03:30pm 18.0 14.4 5.2 43 6.2 SW 13 26 7 14 1005.3 1005.3 0.0
17/03:00pm 18.2 14.8 5.8 44 6.1 WSW 13 20 7 11 1005.0 1005.0 0.0
17/02:30pm 18.6 14.6 5.1 41 6.5 SW 15 20 8 11 1004.7 1004.7 0.0
17/02:00pm 19.0 14.8 5.5 41 6.6 WSW 17 28 9 15 1004.6 1004.6 0.0
17/01:30pm 17.9 13.4 6.1 46 5.8 WSW 19 28 10 15 1004.5 1004.5 0.0
17/01:00pm 17.7 13.0 5.3 44 6.0 WSW 19 35 10 19 1004.5 1004.5 0.0
17/12:30pm 18.3 13.7 5.8 44 6.1 WSW 19 28 10 15 1004.7 1004.7 0.0
17/12:00pm 18.0 13.3 5.9 45 5.9 SW 20 32 11 17 1004.9 1004.9 0.0
17/11:30am 17.7 12.9 5.6 45 5.9 SW 20 32 11 17 1005.3 1005.3 0.0
17/11:00am 17.0 12.3 5.0 45 5.7 WSW 19 30 10 16 1005.7 1005.7 0.0
17/10:30am 16.5 11.9 5.5 48 5.3 WSW 19 33 10 18 1006.1 1006.1 0.0
17/10:00am 15.5 11.2 5.4 51 4.8 W 17 24 9 13 1006.1 1006.1 0.0
17/09:30am 14.7 11.3 6.0 56 4.2 W 13 19 7 10 1006.1 1006.1 0.0
17/09:00am 13.5 11.3 6.4 62 3.4 WNW 7 11 4 6 1006.0 1006.0 0.0
17/08:30am 11.4 9.8 6.3 71 2.4 NW 4 9 2 5 1005.6 1005.6 0.0
17/08:00am 9.8 7.2 6.2 78 1.7 NW 9 11 5 6 1005.5 1005.5 0.0
17/07:30am 7.9 5.5 5.4 84 1.1 NNW 7 9 4 5 1005.3 1005.3 0.0
17/07:00am 7.3 4.8 5.0 85 1.0 NNW 7 9 4 5 1005.0 1005.0 0.0
17/06:30am 7.2 4.8 5.2 87 0.9 NW 7 9 4 5 1004.7 1004.7 0.0
17/06:00am 7.2 4.7 4.7 84 1.1 NW 7 9 4 5 1004.4 1004.4 0.0
17/05:30am 8.1 5.6 5.0 81 1.4 NNW 7 9 4 5 1004.2 1004.2 0.0
17/05:00am 8.3 5.5 5.1 80 1.4 NNW 9 11 5 6 1004.1 1004.1 0.0
17/04:30am 8.1 5.6 4.7 79 1.5 NNW 7 9 4 5 1004.0 1004.0 0.0
17/04:00am 8.9 6.6 5.5 79 1.5 NW 7 9 4 5 1003.8 1003.8 0.0
17/03:30am 9.6 7.3 5.8 77 1.7 NW 7 9 4 5 1003.7 1003.7 0.0
17/03:00am 10.5 7.4 5.7 72 2.2 WNW 11 15 6 8 1003.7 1003.7 0.0
17/02:30am 10.5 7.1 5.9 73 2.1 WNW 13 15 7 8 1003.7 1003.7 0.0
17/02:00am 10.1 7.5 5.9 75 1.9 NW 9 11 5 6 1003.9 1003.9 0.0
17/01:30am 10.1 7.9 6.1 76 1.9 NNW 7 9 4 5 1003.8 1003.8 0.0
17/01:00am 10.5 7.9 6.3 75 2.0 NNW 9 9 5 5 1003.7 1003.7 0.0
17/12:30am 10.6 8.4 6.4 75 2.0 NNW 7 11 4 6 1003.6 1003.6 0.0
17/12:00am 10.7 8.8 6.8 77 1.9 NW 6 7 3 4 1003.8 1003.8 0.0
 
Date/Time
EST
Temp
°C
App
Temp
°C
Dew
Point
°C
Rel
Hum
%
Delta-T
°C
Wind Press
QNH
hPa
Press
MSL
hPa
Rain since
9am
mm
Dir  Spd
km/h
Gust
km/h
Spd
kts
Gust
kts
16/11:30pm 11.2 9.0 6.1 71 2.4 NNW 7 9 4 5 1004.1 1004.1 0.0
16/11:00pm 11.6 9.5 5.7 67 2.8 NNW 6 9 3 5 1004.2 1004.2 0.0
16/10:30pm 11.8 9.0 5.2 64 3.0 NNW 9 13 5 7 1004.2 1004.2 0.0
16/10:00pm 11.7 8.9 5.1 64 3.0 N 9 13 5 7 1004.0 1004.0 0.0
16/09:30pm 11.5 9.1 5.2 65 2.9 NW 7 9 4 5 1004.0 1004.0 0.0
16/09:00pm 11.5 9.1 5.4 66 2.8 NW 7 9 4 5 1003.8 1003.8 0.0
16/08:30pm 11.5 9.0 4.9 64 3.0 NW 7 9 4 5 1003.5 1003.5 0.0
16/08:00pm 11.4 9.1 4.8 64 3.0 NNW 6 9 3 5 1003.3 1003.3 0.0
16/07:30pm 11.4 8.9 4.8 64 3.0 NW 7 9 4 5 1003.1 1003.1 0.0
16/07:00pm 11.1 8.6 4.6 64 2.9 NW 7 11 4 6 1002.8 1002.8 0.0
16/06:30pm 11.4 8.8 4.2 61 3.2 WNW 7 11 4 6 1002.6 1002.6 0.0
16/06:00pm 12.1 9.1 3.9 57 3.7 W 9 11 5 6 1002.3 1002.3 0.0
16/05:30pm 12.8 9.3 3.7 54 4.1 WSW 11 17 6 9 1001.9 1001.9 0.0
16/05:00pm 13.5 8.9 3.8 52 4.4 WSW 17 24 9 13 1001.6 1001.6 0.0
16/04:30pm 13.8 9.6 3.9 51 4.5 W 15 28 8 15 1001.4 1001.4 0.0
16/04:00pm 14.7 9.7 3.8 48 5.0 WSW 19 28 10 15 1001.0 1001.0 0.0
16/03:30pm 14.6 9.4 3.7 48 5.0 W 20 37 11 20 1000.7 1000.7 0.0
16/03:00pm 14.9 10.2 3.4 46 5.3 WSW 17 28 9 15 1000.5 1000.5 0.0
16/02:30pm 16.0 11.1 4.1 45 5.5 W 19 26 10 14 1000.4 1000.4 0.0
16/02:00pm 15.8 11.7 4.5 47 5.3 WNW 15 26 8 14 1000.2 1000.2 0.0
16/01:30pm 14.6 10.1 4.0 49 4.9 W 17 26 9 14 1000.5 1000.5 0.0
16/01:00pm 14.1 8.9 3.8 50 4.7 W 20 32 11 17 1000.6 1000.6 0.0
16/12:30pm 13.8 8.6 3.3 49 4.7 W 20 33 11 18 1000.8 1000.8 0.0
16/12:00pm 13.7 9.5 3.8 51 4.5 W 15 22 8 12 1001.0 1001.0 0.0
16/11:30am 14.0 9.7 3.5 49 4.7 WNW 15 22 8 12 1001.2 1001.2 0.0
16/11:00am 13.7 9.8 3.2 49 4.7 WNW 13 19 7 10 1001.4 1001.4 0.0
16/10:30am 13.1 8.7 2.6 49 4.6 WNW 15 24 8 13 1001.5 1001.5 0.0
16/10:00am 13.5 9.1 2.7 48 4.8 WNW 15 20 8 11 1001.3 1001.3 0.0
16/09:30am 12.7 9.1 3.1 52 4.2 NW 11 19 6 10 1001.0 1001.0 0.0
16/09:00am 12.6 8.2 2.7 51 4.4 NW 15 22 8 12 1000.8 1000.8 0.0
16/08:30am 12.0 8.0 2.7 53 4.1 NW 13 20 7 11 1000.7 1000.7 0.0
16/08:00am 11.4 7.7 2.2 53 4.0 NW 11 17 6 9 1000.6 1000.6 0.0
16/07:30am 11.1 7.7 1.6 52 4.0 NNW 9 17 5 9 1000.5 1000.5 0.0
16/07:00am 10.7 7.2 1.5 53 3.9 NNW 9 15 5 8 1000.5 1000.5 0.0
16/06:30am 11.0 7.1 1.3 51 4.1 NW 11 17 6 9 1000.3 1000.3 0.0
16/06:00am 10.4 6.6 1.5 54 3.7 NNW 11 20 6 11 1000.1 1000.1 0.0
16/05:30am 9.9 6.4 1.5 56 3.5 NNW 9 15 5 8 1000.1 1000.1 0.0
16/05:00am 9.8 6.3 1.5 56 3.5 NNW 9 13 5 7 999.9 999.9 0.0
16/04:30am 10.0 6.1 1.4 55 3.6 NNW 11 19 6 10 999.8 999.8 0.0
16/04:00am 9.4 5.5 1.3 57 3.4 NNW 11 17 6 9 1000.1 1000.1 0.0
16/03:30am 9.9 6.0 1.0 54 3.7 NW 11 19 6 10 1000.3 1000.3 0.0
16/03:00am 9.7 5.8 0.9 54 3.6 NW 11 17 6 9 1000.6 1000.6 0.0
16/02:30am 9.0 5.4 0.5 55 3.4 NW 9 15 5 8 1001.0 1001.0 0.0
16/02:00am 9.4 5.8 0.3 53 3.7 NNW 9 15 5 8 1001.3 1001.3 0.0
16/01:30am 10.1 6.1 0.4 51 3.9 NW 11 20 6 11 1001.5 1001.5 0.0
16/01:00am 9.9 5.9 0.8 53 3.7 NW 11 19 6 10 1001.7 1001.7 0.0
16/12:30am 9.7 6.1 0.9 54 3.6 NW 9 13 5 7 1002.0 1002.0 0.0
16/12:00am 9.4 6.0 1.6 58 3.3 NNW 9 15 5 8 1002.6 1002.6 0.0
 
Date/Time
EST
Temp
°C
App
Temp
°C
Dew
Point
°C
Rel
Hum
%
Delta-T
°C
Wind Press
QNH
hPa
Press
MSL
hPa
Rain since
9am
mm
Dir  Spd
km/h
Gust
km/h
Spd
kts
Gust
kts
15/11:30pm 9.3 5.6 2.2 61 3.0 NW 11 17 6 9 1003.0 1003.0 0.0
15/11:00pm 9.6 6.3 2.2 60 3.1 NW 9 15 5 8 1003.4 1003.4 0.0
15/10:30pm 9.6 5.9 2.2 60 3.1 NW 11 20 6 11 1003.7 1003.7 0.0
15/10:00pm 9.3 5.6 2.2 61 3.0 NW 11 17 6 9 1004.2 1004.2 0.0
15/09:30pm 9.3 6.0 2.2 61 3.0 NNW 9 13 5 7 1004.7 1004.7 0.0
15/09:00pm 9.5 6.1 1.9 59 3.2 NNW 9 15 5 8 1004.9 1004.9 0.0
15/08:30pm 10.0 6.6 1.6 56 3.5 NW 9 15 5 8 1004.8 1004.8 0.0
15/08:00pm 10.4 6.2 1.8 55 3.6 NW 13 22 7 12 1005.0 1005.0 0.0
15/07:30pm 10.2 6.4 1.8 56 3.5 NW 11 17 6 9 1005.2 1005.2 0.0
15/07:00pm 10.3 6.8 1.4 54 3.7 NW 9 15 5 8 1005.3 1005.3 0.0
15/06:30pm 10.9 7.0 1.4 52 4.0 WNW 11 19 6 10 1005.4 1005.4 0.0
15/06:00pm 11.2 7.7 1.2 50 4.2 NW 9 15 5 8 1005.3 1005.3 0.0
15/05:30pm 11.5 7.2 1.2 49 4.3 WNW 13 20 7 11 1005.2 1005.2 0.0
15/05:00pm 12.1 7.3 0.2 44 4.9 WNW 15 26 8 14 1005.1 1005.1 0.0
15/04:30pm 13.3 6.3 -0.3 39 5.6 W 26 37 14 20 1005.1 1005.1 0.0
15/04:00pm 13.8 7.2 -0.3 38 5.9 WNW 24 37 13 20 1005.1 1005.1 0.0
15/03:30pm 14.4 8.2 -0.5 36 6.2 WNW 22 33 12 18 1005.2 1005.2 0.0
15/03:00pm 14.6 8.1 0.1 37 6.1 WNW 24 35 13 19 1005.1 1005.1 0.0
15/02:30pm 14.9 8.4 0.0 36 6.3 W 24 33 13 18 1005.0 1005.0 0.0

Other formats

Comma delimited format used in spreadsheet applications
http://www.bom.gov.au/fwo/IDN60801/IDN60801.94765.axf

JavaScript Object Notation format (JSON) in row-major order
http://www.bom.gov.au/fwo/IDN60801/IDN60801.94765.json

Data quality

Most of these data are generated automatically and are frequently updated. Quality checks on data are not normally performed. It is possible for incorrect values to appear. Refer to information at About Latest Weather Observations and please check the disclaimer before using these data.